createdAt,value
2023-04-15T00:00:37.496Z,97404.56
2023-04-15T00:03:41.283Z,97410.81
2023-04-15T00:06:51.469Z,97405.34
2023-04-15T00:09:56.224Z,97400.88
2023-04-15T00:12:58.812Z,97400.84
2023-04-15T00:16:02.332Z,97406.78
2023-04-15T00:19:05.010Z,97410.34
2023-04-15T00:22:08.273Z,97411.03
2023-04-15T00:25:11.590Z,97413.78
2023-04-15T00:28:14.483Z,97426.00
2023-04-15T00:31:18.363Z,97416.97
2023-04-15T00:34:21.945Z,97416.03
2023-04-15T00:37:24.482Z,97415.06
2023-04-15T00:40:27.862Z,97417.63
2023-04-15T00:43:30.516Z,97422.94
2023-04-15T00:46:35.944Z,97422.88
2023-04-15T00:49:38.435Z,97424.69
2023-04-15T00:52:41.583Z,97410.44
2023-04-15T00:55:44.133Z,97402.91
2023-04-15T00:58:47.085Z,97406.31
2023-04-15T01:01:49.888Z,97401.84
2023-04-15T01:04:52.850Z,97400.06
2023-04-15T01:07:55.394Z,97406.19
2023-04-15T01:10:59.033Z,97394.72
2023-04-15T01:14:02.536Z,97406.16
2023-04-15T01:17:05.453Z,97399.97
2023-04-15T01:20:12.305Z,97396.38
2023-04-15T01:23:17.006Z,97400.00
2023-04-15T01:26:19.917Z,97401.81
2023-04-15T01:29:23.299Z,97407.13
2023-04-15T01:32:27.172Z,97408.00
2023-04-15T01:35:30.263Z,97399.97
2023-04-15T01:38:33.412Z,97396.44
2023-04-15T01:41:36.538Z,97401.75
2023-04-15T01:44:39.176Z,97401.72
2023-04-15T01:47:42.096Z,97404.38
2023-04-15T01:50:46.498Z,97403.47
2023-04-15T01:53:50.265Z,97402.56
2023-04-15T01:56:52.980Z,97369.34
2023-04-15T01:59:56.229Z,97410.56
2023-04-15T02:02:59.552Z,97422.09
2023-04-15T02:06:02.592Z,97416.53
2023-04-15T02:09:05.213Z,97422.78
2023-04-15T02:12:08.222Z,97428.03
2023-04-15T02:15:11.274Z,97418.28
2023-04-15T02:18:14.222Z,97410.44
2023-04-15T02:21:20.350Z,97414.69
2023-04-15T02:24:23.183Z,97406.72
2023-04-15T02:27:26.220Z,97411.00
2023-04-15T02:30:29.209Z,97412.84
2023-04-15T02:33:32.415Z,97407.34
2023-04-15T02:36:36.261Z,97413.38
2023-04-15T02:39:41.042Z,97407.06
2023-04-15T02:42:44.717Z,97413.28
2023-04-15T02:45:48.719Z,97415.03
2023-04-15T02:48:53.337Z,97416.91
2023-04-15T02:51:58.252Z,97415.84
2023-04-15T02:55:02.616Z,97405.28
2023-04-15T02:58:05.853Z,97407.88
2023-04-15T03:01:12.166Z,97410.47
2023-04-15T03:04:15.876Z,97415.03
2023-04-15T03:07:18.858Z,97420.38
2023-04-15T03:10:22.338Z,97410.47
2023-04-15T03:13:25.409Z,97420.22
2023-04-15T03:16:29.007Z,97419.28
2023-04-15T03:19:33.497Z,97415.75
2023-04-15T03:22:36.626Z,97413.81
2023-04-15T03:25:39.991Z,97418.59
2023-04-15T03:28:42.854Z,97403.34
2023-04-15T03:31:46.263Z,97417.50
2023-04-15T03:34:48.859Z,97413.03
2023-04-15T03:37:51.792Z,97411.88
2023-04-15T03:40:54.326Z,97416.19
2023-04-15T03:43:57.432Z,97417.84
2023-04-15T03:47:00.071Z,97414.28
2023-04-15T03:50:03.089Z,97416.00
2023-04-15T03:53:06.035Z,97417.78
2023-04-15T03:56:08.836Z,97416.94
2023-04-15T03:59:11.559Z,97418.66
2023-04-15T04:02:14.555Z,97429.22
2023-04-15T04:05:17.563Z,97424.78
2023-04-15T04:08:21.701Z,97422.41
2023-04-15T04:11:24.723Z,97416.19
2023-04-15T04:14:29.804Z,97417.91
2023-04-15T04:17:32.962Z,97417.97
2023-04-15T04:20:35.645Z,97409.00
2023-04-15T04:23:38.660Z,97418.66
2023-04-15T04:26:41.544Z,97417.75
2023-04-15T04:29:44.524Z,97410.66
2023-04-15T04:32:47.173Z,97412.34
2023-04-15T04:35:50.079Z,97405.91
2023-04-15T04:38:52.655Z,97413.69
2023-04-15T04:41:56.084Z,97415.47
2023-04-15T04:44:58.824Z,97417.16
2023-04-15T04:48:01.809Z,97418.91
2023-04-15T04:51:04.411Z,97420.56
2023-04-15T04:54:07.655Z,97421.22
2023-04-15T04:57:10.177Z,97424.56
2023-04-15T05:00:14.134Z,97424.56
2023-04-15T05:03:17.411Z,97420.34
2023-04-15T05:06:20.601Z,97418.59
2023-04-15T05:09:23.419Z,97423.19
2023-04-15T05:12:26.680Z,97423.94
2023-04-15T05:15:29.278Z,97424.75
2023-04-15T05:18:32.381Z,97428.97
2023-04-15T05:21:35.317Z,97422.72
2023-04-15T05:24:38.957Z,97426.06
2023-04-15T05:27:41.575Z,97425.00
2023-04-15T05:30:44.453Z,97432.97
2023-04-15T05:33:47.244Z,97431.28
2023-04-15T05:36:50.491Z,97434.81
2023-04-15T05:39:53.167Z,97438.22
2023-04-15T05:42:56.223Z,97441.84
2023-04-15T05:45:58.935Z,97435.34
2023-04-15T05:49:02.030Z,97436.00
2023-04-15T05:52:05.768Z,97444.50
2023-04-15T05:55:08.966Z,97439.97
2023-04-15T05:58:11.563Z,97440.97
2023-04-15T06:01:14.598Z,97443.06
2023-04-15T06:04:17.839Z,97440.78
2023-04-15T06:07:20.643Z,97438.25
2023-04-15T06:10:23.580Z,97445.94
2023-04-15T06:13:26.205Z,97445.63
2023-04-15T06:16:29.080Z,97451.09
2023-04-15T06:19:32.113Z,97459.91
2023-04-15T06:22:34.926Z,97457.97
2023-04-15T06:25:37.603Z,97462.25
2023-04-15T06:28:40.788Z,97463.84
2023-04-15T06:31:50.208Z,97465.63
2023-04-15T06:34:53.119Z,97464.63
2023-04-15T06:37:55.764Z,97467.91
2023-04-15T06:40:58.679Z,97464.97
2023-04-15T06:44:01.256Z,97469.44
2023-04-15T06:47:04.177Z,97476.53
2023-04-15T06:50:07.639Z,97471.75
2023-04-15T06:53:10.551Z,97485.72
2023-04-15T06:56:13.151Z,97486.69
2023-04-15T06:59:16.107Z,97489.06
2023-04-15T07:02:18.998Z,97486.94
2023-04-15T07:05:22.076Z,97487.84
2023-04-15T07:08:25.640Z,97498.50
2023-04-15T07:11:28.401Z,97490.00
2023-04-15T07:14:31.352Z,97486.09
2023-04-15T07:17:34.397Z,97489.62
2023-04-15T07:20:37.104Z,97485.13
2023-04-15T07:23:40.298Z,97491.88
2023-04-15T07:26:42.864Z,97500.09
2023-04-15T07:29:45.733Z,97504.56
2023-04-15T07:32:48.488Z,97503.63
2023-04-15T07:35:51.819Z,97506.56
2023-04-15T07:38:55.386Z,97509.41
2023-04-15T07:41:59.108Z,97509.97
2023-04-15T07:45:02.602Z,97512.28
2023-04-15T07:48:06.728Z,97514.97
2023-04-15T07:51:10.844Z,97520.00
2023-04-15T07:54:14.082Z,97519.66
2023-04-15T07:57:17.915Z,97529.78
2023-04-15T08:00:20.810Z,97527.84
2023-04-15T08:03:23.907Z,97526.47
2023-04-15T08:06:27.511Z,97530.50
2023-04-15T08:09:30.569Z,97503.22
2023-04-15T08:12:33.407Z,97526.22
2023-04-15T08:15:36.447Z,97532.09
2023-04-15T08:18:39.436Z,97534.03
2023-04-15T08:21:42.370Z,97533.19
2023-04-15T08:24:45.154Z,97523.84
2023-04-15T08:27:48.201Z,97533.53
2023-04-15T08:30:51.242Z,97533.50
2023-04-15T08:33:56.905Z,97537.34
2023-04-15T08:37:00.443Z,97536.72
2023-04-15T08:40:04.826Z,97539.41
2023-04-15T08:43:10.168Z,97540.84
2023-04-15T08:46:13.388Z,97533.78
2023-04-15T08:49:18.094Z,97525.50
2023-04-15T08:52:21.552Z,97545.72
2023-04-15T08:55:26.692Z,97540.25
2023-04-15T08:58:30.199Z,97533.25
2023-04-15T09:01:33.304Z,97543.59
2023-04-15T09:04:36.369Z,97554.47
2023-04-15T09:07:39.470Z,97534.22
2023-04-15T09:10:42.351Z,97538.66
2023-04-15T09:13:45.713Z,97532.81
2023-04-15T09:17:01.887Z,97540.78
2023-04-15T09:20:15.299Z,97541.94
2023-04-15T09:23:18.316Z,97537.25
2023-04-15T09:26:31.067Z,97552.81
2023-04-15T09:29:33.906Z,97541.50
2023-04-15T09:32:49.654Z,97547.63
2023-04-15T09:36:01.676Z,97548.69
2023-04-15T09:39:04.451Z,97540.00
2023-04-15T09:42:08.449Z,97546.44
2023-04-15T09:45:12.140Z,97543.25
2023-04-15T09:48:21.152Z,97539.16
2023-04-15T09:51:35.095Z,97542.81
2023-04-15T09:54:38.921Z,97537.22
2023-04-15T09:57:41.870Z,97532.28
2023-04-15T10:00:46.180Z,97534.88
2023-04-15T10:03:49.692Z,97500.75
2023-04-15T10:06:52.492Z,97551.53
2023-04-15T10:09:56.606Z,97537.78
2023-04-15T10:12:59.351Z,97543.16
2023-04-15T10:16:15.944Z,97544.31
2023-04-15T10:19:21.874Z,97539.25
2023-04-15T10:22:25.981Z,97555.37
2023-04-15T10:25:29.405Z,97557.53
2023-04-15T10:28:32.457Z,97550.62
2023-04-15T10:31:38.236Z,97551.59
2023-04-15T10:34:42.152Z,97551.75
2023-04-15T10:37:44.653Z,97545.75
2023-04-15T10:40:47.688Z,97545.38
2023-04-15T10:43:54.151Z,97545.78
2023-04-15T10:46:58.914Z,97543.28
2023-04-15T10:50:02.522Z,97554.94
2023-04-15T10:53:05.768Z,97551.00
2023-04-15T10:56:08.589Z,97549.31
2023-04-15T10:59:11.738Z,97552.44
2023-04-15T11:02:15.714Z,97544.16
2023-04-15T11:05:20.059Z,97551.09
2023-04-15T11:08:56.218Z,97550.66
2023-04-15T11:12:05.600Z,97555.88
2023-04-15T11:15:27.125Z,97553.03
2023-04-15T11:18:31.303Z,97559.84
2023-04-15T11:21:34.230Z,97560.91
2023-04-15T11:24:37.824Z,97574.31
2023-04-15T11:27:40.466Z,97560.72
2023-04-15T11:30:43.984Z,97572.06
2023-04-15T11:33:56.619Z,97567.91
2023-04-15T11:36:59.551Z,97571.09
2023-04-15T11:40:03.631Z,97566.22
2023-04-15T11:43:09.118Z,97564.56
2023-04-15T11:46:11.681Z,97558.66
2023-04-15T11:49:34.985Z,97565.47
2023-04-15T11:52:37.565Z,97564.47
2023-04-15T11:55:46.282Z,97564.44
2023-04-15T11:58:51.706Z,97555.78
2023-04-15T12:01:55.107Z,97582.03
2023-04-15T12:05:05.438Z,97575.59
2023-04-15T12:08:08.064Z,97577.13
2023-04-15T12:11:11.119Z,97578.50
2023-04-15T12:14:26.813Z,97579.16
2023-04-15T12:17:29.879Z,97580.88
2023-04-15T12:20:52.517Z,97579.47
2023-04-15T12:23:57.185Z,97585.63
2023-04-15T12:27:07.311Z,97585.09
2023-04-15T12:30:11.753Z,97596.62
2023-04-15T12:33:14.751Z,97586.03
2023-04-15T12:36:17.841Z,97586.75
2023-04-15T12:39:25.375Z,97593.78
2023-04-15T12:42:28.348Z,97593.41
2023-04-15T12:45:30.938Z,97600.25
2023-04-15T12:48:34.373Z,97594.38
2023-04-15T12:51:37.711Z,97599.47
2023-04-15T12:54:40.717Z,97615.03
2023-04-15T12:57:43.604Z,97611.31
2023-04-15T13:00:47.046Z,97616.56
2023-04-15T13:03:51.233Z,97616.34
2023-04-15T13:06:54.331Z,97619.00
2023-04-15T13:09:57.094Z,97626.03
2023-04-15T13:13:00.026Z,97622.81
2023-04-15T13:16:03.012Z,97636.06
2023-04-15T13:19:06.504Z,97634.44
2023-04-15T13:22:09.441Z,97598.44
2023-04-15T13:25:12.600Z,97634.28
2023-04-15T13:28:15.142Z,97643.63
2023-04-15T13:31:18.081Z,97628.41
2023-04-15T13:34:21.428Z,97646.31
2023-04-15T13:37:28.252Z,97636.78
2023-04-15T13:40:31.606Z,97642.06
2023-04-15T13:43:34.733Z,97653.66
2023-04-15T13:46:39.606Z,97643.25
2023-04-15T13:49:42.680Z,97641.41
2023-04-15T13:52:45.392Z,97639.19
2023-04-15T13:55:48.491Z,97645.59
2023-04-15T13:58:52.976Z,97656.66
2023-04-15T14:01:56.272Z,97645.81
2023-04-15T14:04:59.281Z,97654.84
2023-04-15T14:08:01.915Z,97653.72
2023-04-15T14:11:04.787Z,97658.63
2023-04-15T14:14:08.002Z,97654.44
2023-04-15T14:17:11.120Z,97659.81
2023-04-15T14:20:15.619Z,97661.87
2023-04-15T14:23:20.131Z,97660.28
2023-04-15T14:26:22.618Z,97656.09
2023-04-15T14:29:26.389Z,97655.88
2023-04-15T14:32:29.322Z,97670.25
2023-04-15T14:35:32.548Z,97661.87
2023-04-15T14:38:39.790Z,97669.84
2023-04-15T14:41:42.659Z,97673.06
2023-04-15T14:44:45.382Z,97679.56
2023-04-15T14:47:48.649Z,97674.28
2023-04-15T14:50:51.309Z,97674.03
2023-04-15T14:53:54.261Z,97676.66
2023-04-15T14:56:57.295Z,97687.81
2023-04-15T15:00:00.351Z,97684.63
2023-04-15T15:03:03.252Z,97689.28
2023-04-15T15:06:06.301Z,97691.91
2023-04-15T15:09:09.188Z,97664.16
2023-04-15T15:12:12.041Z,97685.03
2023-04-15T15:15:28.001Z,97698.72
2023-04-15T15:18:31.597Z,97700.28
2023-04-15T15:21:34.711Z,97701.53
2023-04-15T15:24:37.492Z,97694.75
2023-04-15T15:27:40.411Z,97711.31
2023-04-15T15:30:43.263Z,97706.13
2023-04-15T15:33:45.779Z,97709.28
2023-04-15T15:36:48.708Z,97704.00
2023-04-15T15:39:52.903Z,97705.34
2023-04-15T15:42:55.750Z,97716.53
2023-04-15T15:45:58.281Z,97730.37
2023-04-15T15:49:03.496Z,97727.41
2023-04-15T15:52:06.644Z,97728.44
2023-04-15T15:55:09.495Z,97728.59
2023-04-15T15:58:12.150Z,97735.94
2023-04-15T16:01:15.044Z,97737.81
2023-04-15T16:04:18.445Z,97741.53
2023-04-15T16:07:21.286Z,97745.22
2023-04-15T16:10:24.211Z,97744.75
2023-04-15T16:13:26.758Z,97751.19
2023-04-15T16:16:30.117Z,97754.13
2023-04-15T16:19:32.759Z,97757.81
2023-04-15T16:22:36.051Z,97759.38
2023-04-15T16:25:38.694Z,97766.41
2023-04-15T16:28:41.795Z,97752.25
2023-04-15T16:31:44.501Z,97755.00
2023-04-15T16:34:47.483Z,97764.75
2023-04-15T16:37:50.449Z,97773.03
2023-04-15T16:40:53.771Z,97773.34
2023-04-15T16:43:57.548Z,97769.47
2023-04-15T16:47:02.859Z,97774.91
2023-04-15T16:50:05.991Z,97774.84
2023-04-15T16:53:09.090Z,97783.75
2023-04-15T16:56:11.653Z,97780.69
2023-04-15T16:59:14.770Z,97790.59
2023-04-15T17:02:17.764Z,97796.03
2023-04-15T17:05:21.093Z,97796.91
2023-04-15T17:08:23.880Z,97799.44
2023-04-15T17:11:27.987Z,97805.37
2023-04-15T17:14:31.557Z,97810.75
2023-04-15T17:17:34.547Z,97811.34
2023-04-15T17:20:38.698Z,97813.47
2023-04-15T17:23:41.950Z,97811.34
2023-04-15T17:26:44.639Z,97818.63
2023-04-15T17:29:47.551Z,97820.38
2023-04-15T17:32:51.680Z,97819.56
2023-04-15T17:35:54.679Z,97821.53
2023-04-15T17:38:57.926Z,97832.44
2023-04-15T17:42:01.318Z,97834.97
2023-04-15T17:45:04.074Z,97833.81
2023-04-15T17:48:07.246Z,97839.62
2023-04-15T17:51:10.091Z,97844.41
2023-04-15T17:54:13.204Z,97844.41
2023-04-15T17:57:16.674Z,97845.56
2023-04-15T18:00:19.586Z,97850.63
2023-04-15T18:03:24.830Z,97853.44
2023-04-15T18:06:27.987Z,97864.19
2023-04-15T18:09:31.252Z,97865.66
2023-04-15T18:12:34.112Z,97857.22
2023-04-15T18:15:37.258Z,97868.34
2023-04-15T18:18:40.064Z,97873.97
2023-04-15T18:21:43.016Z,97869.06
2023-04-15T18:24:45.891Z,97869.19
2023-04-15T18:27:49.182Z,97873.00
2023-04-15T18:30:52.004Z,97869.50
2023-04-15T18:33:55.208Z,97878.59
2023-04-15T18:36:58.387Z,97881.53
2023-04-15T18:40:01.623Z,97884.44
2023-04-15T18:43:04.580Z,97890.06
2023-04-15T18:46:11.777Z,97902.00
2023-04-15T18:49:14.997Z,97905.66
2023-04-15T18:52:18.181Z,97913.47
2023-04-15T18:55:21.273Z,97922.22
2023-04-15T18:58:24.391Z,97921.88
2023-04-15T19:01:27.275Z,97928.47
2023-04-15T19:04:30.509Z,97931.62
2023-04-15T19:07:33.387Z,97939.88
2023-04-15T19:10:36.611Z,97945.50
2023-04-15T19:13:39.406Z,97949.22
2023-04-15T19:16:42.330Z,97956.50
2023-04-15T19:19:45.185Z,97963.88
2023-04-15T19:22:48.577Z,97961.81
2023-04-15T19:25:51.474Z,97964.78
2023-04-15T19:28:56.480Z,97971.28
2023-04-15T19:31:59.476Z,97971.41
2023-04-15T19:35:03.214Z,97960.81
2023-04-15T19:38:06.265Z,97971.63
2023-04-15T19:41:10.983Z,97977.12
2023-04-15T19:44:13.917Z,97977.94
2023-04-15T19:47:17.267Z,97971.78
2023-04-15T19:50:26.447Z,97979.00
2023-04-15T19:53:29.571Z,97977.19
2023-04-15T19:56:34.378Z,97985.28
2023-04-15T19:59:38.015Z,97980.78
2023-04-15T20:02:41.357Z,97989.63
2023-04-15T20:05:45.124Z,97987.03
2023-04-15T20:08:48.194Z,97999.53
2023-04-15T20:12:47.848Z,98010.22
2023-04-15T20:15:14.865Z,98007.59
2023-04-15T20:18:18.056Z,98002.63
2023-04-15T20:21:20.923Z,98004.25
2023-04-15T20:24:24.603Z,98006.03
2023-04-15T20:27:27.575Z,98013.09
2023-04-15T20:30:30.797Z,98013.06
2023-04-15T20:33:33.572Z,98023.81
2023-04-15T20:36:36.563Z,98031.09
2023-04-15T20:39:40.759Z,98029.41
2023-04-15T20:42:43.810Z,98030.22
2023-04-15T20:45:46.871Z,98036.50
2023-04-15T20:48:50.109Z,98030.44
2023-04-15T20:51:52.944Z,98035.00
2023-04-15T20:54:56.197Z,98039.78
2023-04-15T20:57:59.492Z,98040.78
2023-04-15T21:01:02.534Z,98041.72
2023-04-15T21:04:06.040Z,98048.00
2023-04-15T21:07:10.030Z,98056.94
2023-04-15T21:10:12.472Z,98055.31
2023-04-15T21:13:17.690Z,98062.53
2023-04-15T21:16:20.186Z,98060.88
2023-04-15T21:19:22.958Z,98061.00
2023-04-15T21:22:26.271Z,98061.09
2023-04-15T21:25:29.264Z,98070.25
2023-04-15T21:28:31.926Z,98066.81
2023-04-15T21:31:34.911Z,98070.47
2023-04-15T21:34:37.506Z,98074.16
2023-04-15T21:37:40.362Z,98074.28
2023-04-15T21:40:42.899Z,98073.44
2023-04-15T21:43:45.782Z,98085.94
2023-04-15T21:46:48.438Z,98089.47
2023-04-15T21:49:51.534Z,98093.09
2023-04-15T21:52:53.996Z,98098.53
2023-04-15T21:55:56.873Z,98093.06
2023-04-15T21:58:59.704Z,98086.84
2023-04-15T22:02:02.633Z,98089.53
2023-04-15T22:05:06.918Z,98093.06
2023-04-15T22:08:09.467Z,98090.44
2023-04-15T22:11:21.588Z,98099.41
2023-04-15T22:14:24.125Z,98094.16
2023-04-15T22:17:27.689Z,98098.62
2023-04-15T22:20:30.422Z,98096.88
2023-04-15T22:23:33.224Z,98095.28
2023-04-15T22:26:35.842Z,98102.38
2023-04-15T22:29:38.775Z,98100.56
2023-04-15T22:32:41.447Z,98101.56
2023-04-15T22:35:44.293Z,98103.47
2023-04-15T22:38:47.305Z,98101.78
2023-04-15T22:41:50.068Z,98101.03
2023-04-15T22:44:52.656Z,98097.56
2023-04-15T22:47:55.425Z,98107.75
2023-04-15T22:50:58.116Z,98108.06
2023-04-15T22:54:00.945Z,98106.53
2023-04-15T22:57:03.545Z,98111.09
2023-04-15T23:00:07.491Z,98116.56
2023-04-15T23:03:10.415Z,98110.41
2023-04-15T23:06:13.837Z,98114.84
2023-04-15T23:09:16.302Z,98108.66
2023-04-15T23:12:19.151Z,98110.56
2023-04-15T23:15:21.760Z,98115.09
2023-04-15T23:18:24.829Z,98106.31
2023-04-15T23:21:28.489Z,98111.00
2023-04-15T23:24:31.340Z,98123.59
2023-04-15T23:27:34.523Z,98125.37
2023-04-15T23:30:37.573Z,98126.34
2023-04-15T23:33:40.314Z,98123.78
2023-04-15T23:36:43.039Z,98127.50
2023-04-15T23:39:45.768Z,98129.41
2023-04-15T23:42:48.616Z,98124.94
2023-04-15T23:45:51.199Z,98124.06
2023-04-15T23:48:54.084Z,98124.94
2023-04-15T23:51:57.532Z,98130.47
2023-04-15T23:55:00.492Z,98126.87
2023-04-15T23:58:02.979Z,98134.00
